createdAt,value
2019-03-25T00:01:29.679Z,5.00
2019-03-25T00:04:00.241Z,5.00
2019-03-25T00:06:31.627Z,5.00
2019-03-25T00:09:05.356Z,5.10
2019-03-25T00:11:34.278Z,5.10
2019-03-25T00:14:05.782Z,5.10
2019-03-25T00:16:36.354Z,5.10
2019-03-25T00:19:06.893Z,5.10
2019-03-25T00:21:37.512Z,5.10
2019-03-25T00:24:08.037Z,5.20
2019-03-25T00:26:38.697Z,5.10
2019-03-25T00:29:09.898Z,5.20
2019-03-25T00:31:40.583Z,5.20
2019-03-25T00:34:11.091Z,5.20
2019-03-25T00:36:42.505Z,5.20
2019-03-25T00:39:13.535Z,5.20
2019-03-25T00:41:44.372Z,5.20
2019-03-25T00:44:22.881Z,5.20
2019-03-25T00:46:52.294Z,5.20
2019-03-25T00:49:23.333Z,5.20
2019-03-25T00:51:54.130Z,5.30
2019-03-25T00:54:24.902Z,5.20
2019-03-25T00:56:55.569Z,5.20
2019-03-25T00:59:26.380Z,5.20
2019-03-25T01:01:57.080Z,5.20
2019-03-25T01:04:27.775Z,5.20
2019-03-25T01:06:58.445Z,5.20
2019-03-25T01:09:29.931Z,5.30
2019-03-25T01:12:01.046Z,5.30
2019-03-25T01:14:31.558Z,5.30
2019-03-25T01:17:03.781Z,5.30
2019-03-25T01:19:34.462Z,5.40
2019-03-25T01:22:05.164Z,5.40
2019-03-25T01:24:37.825Z,5.40
2019-03-25T01:27:08.582Z,5.40
2019-03-25T01:29:39.041Z,5.40
2019-03-25T01:32:10.036Z,5.40
2019-03-25T01:34:41.239Z,5.40
2019-03-25T01:37:11.881Z,5.40
2019-03-25T01:39:42.942Z,5.50
2019-03-25T01:42:13.798Z,5.50
2019-03-25T01:44:44.277Z,5.50
2019-03-25T01:47:14.780Z,5.50
2019-03-25T01:49:45.402Z,5.50
2019-03-25T01:52:16.276Z,5.60
2019-03-25T01:54:47.421Z,5.50
2019-03-25T01:57:18.702Z,5.60
2019-03-25T01:59:49.276Z,5.40
2019-03-25T02:02:20.029Z,5.30
2019-03-25T02:04:50.729Z,5.30
2019-03-25T02:07:21.538Z,5.20
2019-03-25T02:09:52.533Z,5.30
2019-03-25T02:12:23.311Z,5.30
2019-03-25T02:14:53.921Z,5.20
2019-03-25T02:17:25.075Z,5.30
2019-03-25T02:19:56.132Z,5.30
2019-03-25T02:22:26.843Z,5.20
2019-03-25T02:24:57.707Z,5.30
2019-03-25T02:27:29.922Z,5.30
2019-03-25T02:30:00.586Z,5.40
2019-03-25T02:32:31.107Z,5.50
2019-03-25T02:35:02.250Z,5.60
2019-03-25T02:37:33.190Z,5.80
2019-03-25T02:40:03.817Z,5.80
2019-03-25T02:42:34.391Z,5.80
2019-03-25T02:45:05.079Z,5.80
2019-03-25T02:47:35.734Z,5.80
2019-03-25T02:50:07.037Z,5.70
2019-03-25T02:52:37.845Z,5.60
2019-03-25T02:55:08.926Z,5.40
2019-03-25T02:57:39.834Z,5.40
2019-03-25T03:00:11.684Z,5.20
2019-03-25T03:02:42.424Z,5.20
2019-03-25T03:05:13.247Z,5.10
2019-03-25T03:07:43.811Z,5.10
2019-03-25T03:10:16.334Z,5.10
2019-03-25T03:12:47.806Z,5.00
2019-03-25T03:15:18.755Z,5.00
2019-03-25T03:17:49.465Z,5.00
2019-03-25T03:20:20.937Z,5.00
2019-03-25T03:22:51.951Z,4.90
2019-03-25T03:25:22.719Z,4.80
2019-03-25T03:27:53.516Z,4.90
2019-03-25T03:30:24.807Z,4.90
2019-03-25T03:32:55.391Z,4.90
2019-03-25T03:35:26.282Z,5.00
2019-03-25T03:37:57.517Z,5.00
2019-03-25T03:40:28.418Z,4.90
2019-03-25T03:42:58.962Z,4.80
2019-03-25T03:45:29.575Z,4.70
2019-03-25T03:48:00.567Z,4.70
2019-03-25T03:50:31.548Z,4.70
2019-03-25T03:53:02.632Z,4.60
2019-03-25T03:55:35.319Z,4.50
2019-03-25T03:58:06.361Z,4.60
2019-03-25T04:00:37.512Z,4.60
2019-03-25T04:03:08.444Z,4.40
2019-03-25T04:05:39.185Z,4.50
2019-03-25T04:08:10.807Z,4.40
2019-03-25T04:10:41.840Z,4.30
2019-03-25T04:13:12.352Z,4.10
2019-03-25T04:15:43.170Z,4.00
2019-03-25T04:18:13.920Z,4.20
2019-03-25T04:20:44.454Z,4.10
2019-03-25T04:23:15.430Z,4.10
2019-03-25T04:25:46.151Z,4.20
2019-03-25T04:28:16.690Z,4.20
2019-03-25T04:30:47.944Z,4.30
2019-03-25T04:33:18.573Z,4.20
2019-03-25T04:35:49.171Z,4.20
2019-03-25T04:38:19.753Z,4.20
2019-03-25T04:40:50.447Z,4.30
2019-03-25T04:43:21.099Z,4.30
2019-03-25T04:45:51.774Z,4.20
2019-03-25T04:48:22.594Z,4.20
2019-03-25T04:50:53.281Z,4.10
2019-03-25T04:53:24.187Z,4.00
2019-03-25T04:55:54.656Z,4.10
2019-03-25T04:58:25.296Z,4.00
2019-03-25T05:00:56.369Z,4.10
2019-03-25T05:03:27.374Z,4.00
2019-03-25T05:05:58.136Z,4.00
2019-03-25T05:08:28.636Z,4.00
2019-03-25T05:10:59.233Z,4.00
2019-03-25T05:13:30.097Z,4.00
2019-03-25T05:16:01.100Z,4.10
2019-03-25T05:18:31.775Z,4.20
2019-03-25T05:21:02.548Z,4.20
2019-03-25T05:23:33.513Z,4.20
2019-03-25T05:26:04.383Z,4.10
2019-03-25T05:28:34.897Z,4.10
2019-03-25T05:31:05.783Z,4.00
2019-03-25T05:33:36.377Z,4.10
2019-03-25T05:36:08.730Z,4.20
2019-03-25T05:38:39.659Z,4.10
2019-03-25T05:41:10.346Z,4.10
2019-03-25T05:43:40.874Z,4.10
2019-03-25T05:46:11.954Z,4.30
2019-03-25T05:48:42.545Z,4.30
2019-03-25T05:51:13.369Z,4.40
2019-03-25T05:53:44.589Z,4.50
2019-03-25T05:56:15.250Z,4.40
2019-03-25T05:58:45.791Z,4.40
2019-03-25T06:01:16.596Z,4.40
2019-03-25T06:03:47.149Z,4.40
2019-03-25T06:06:18.765Z,4.40
2019-03-25T06:08:52.665Z,4.30
2019-03-25T06:11:23.211Z,4.30
2019-03-25T06:13:53.941Z,4.20
2019-03-25T06:16:25.129Z,4.20
2019-03-25T06:18:56.006Z,4.30
2019-03-25T06:21:26.910Z,4.30
2019-03-25T06:23:58.110Z,4.30
2019-03-25T06:26:28.788Z,4.30
2019-03-25T06:28:59.409Z,4.30
2019-03-25T06:31:30.221Z,4.40
2019-03-25T06:34:00.908Z,4.50
2019-03-25T06:36:31.417Z,4.50
2019-03-25T06:39:02.389Z,4.60
2019-03-25T06:41:33.349Z,4.70
2019-03-25T06:44:11.157Z,4.80
2019-03-25T06:46:42.187Z,4.90
2019-03-25T06:49:12.693Z,5.00
2019-03-25T06:51:45.189Z,5.00
2019-03-25T06:54:16.078Z,5.00
2019-03-25T06:56:52.603Z,4.90
2019-03-25T06:59:23.050Z,4.90
2019-03-25T07:01:53.899Z,5.00
2019-03-25T07:04:24.457Z,5.00
2019-03-25T07:06:55.340Z,5.10
2019-03-25T07:09:25.988Z,5.30
2019-03-25T07:11:57.054Z,5.30
2019-03-25T07:14:27.790Z,5.20
2019-03-25T07:16:59.411Z,5.30
2019-03-25T07:19:30.123Z,5.20
2019-03-25T07:22:00.867Z,5.10
2019-03-25T07:24:31.850Z,5.00
2019-03-25T07:27:02.947Z,5.00
2019-03-25T07:29:34.059Z,5.00
2019-03-25T07:32:04.754Z,4.80
2019-03-25T07:34:35.147Z,4.80
2019-03-25T07:37:06.195Z,4.90
2019-03-25T07:39:37.249Z,5.00
2019-03-25T07:42:07.923Z,5.00
2019-03-25T07:44:38.777Z,5.10
2019-03-25T07:47:09.769Z,5.10
2019-03-25T07:49:40.377Z,5.10
2019-03-25T07:52:10.906Z,5.20
2019-03-25T07:54:41.673Z,5.20
2019-03-25T07:57:12.511Z,5.20
2019-03-25T07:59:43.295Z,5.20
2019-03-25T08:02:15.212Z,5.10
2019-03-25T08:04:46.200Z,5.10
2019-03-25T08:07:16.802Z,4.90
2019-03-25T08:09:47.595Z,5.10
2019-03-25T08:12:18.093Z,5.50
2019-03-25T08:14:49.470Z,5.80
2019-03-25T08:17:20.677Z,6.30
2019-03-25T08:19:51.356Z,6.40
2019-03-25T08:22:21.838Z,6.20
2019-03-25T08:24:52.558Z,6.20
2019-03-25T08:27:23.450Z,6.20
2019-03-25T08:29:54.465Z,6.60
2019-03-25T08:32:25.706Z,6.70
2019-03-25T08:34:56.906Z,7.00
2019-03-25T08:37:27.399Z,7.00
2019-03-25T08:39:58.151Z,6.90
2019-03-25T08:42:28.950Z,6.90
2019-03-25T08:44:59.903Z,6.80
2019-03-25T08:47:31.138Z,6.70
2019-03-25T08:50:01.581Z,6.70
2019-03-25T08:52:32.093Z,6.50
2019-03-25T08:55:03.590Z,6.50
2019-03-25T08:57:34.413Z,6.50
2019-03-25T09:00:05.158Z,6.60
2019-03-25T09:02:35.759Z,6.60
2019-03-25T09:05:07.088Z,6.50
2019-03-25T09:07:37.719Z,6.50
2019-03-25T09:10:08.553Z,6.90
2019-03-25T09:12:39.028Z,7.40
2019-03-25T09:15:10.766Z,7.50
2019-03-25T09:17:41.566Z,8.00
2019-03-25T09:20:12.509Z,7.90
2019-03-25T09:22:43.093Z,7.80
2019-03-25T09:25:14.723Z,7.90
2019-03-25T09:27:45.254Z,7.60
2019-03-25T09:30:36.191Z,8.00
2019-03-25T09:33:07.542Z,8.30
2019-03-25T09:35:38.144Z,8.80
2019-03-25T09:38:08.867Z,8.90
2019-03-25T09:40:39.560Z,8.70
2019-03-25T09:43:11.008Z,8.20
2019-03-25T09:45:42.026Z,7.70
2019-03-25T09:48:12.668Z,7.40
2019-03-25T09:50:44.486Z,7.00
2019-03-25T09:53:15.709Z,7.00
2019-03-25T09:55:46.066Z,6.90
2019-03-25T09:58:17.201Z,7.60
2019-03-25T10:00:47.798Z,8.20
2019-03-25T10:03:18.456Z,9.20
2019-03-25T10:05:48.927Z,9.50
2019-03-25T10:08:19.417Z,9.50
2019-03-25T10:10:50.107Z,10.40
2019-03-25T10:13:20.997Z,10.30
2019-03-25T10:15:51.590Z,10.00
2019-03-25T10:18:22.366Z,10.40
2019-03-25T10:20:53.353Z,10.00
2019-03-25T10:23:24.217Z,10.20
2019-03-25T10:25:55.224Z,10.60
2019-03-25T10:28:25.825Z,10.90
2019-03-25T10:30:57.275Z,11.00
2019-03-25T10:33:28.182Z,10.70
2019-03-25T10:35:58.939Z,11.00
2019-03-25T10:38:29.977Z,11.10
2019-03-25T10:41:00.949Z,10.40
2019-03-25T10:43:31.606Z,9.70
2019-03-25T10:46:02.801Z,9.40
2019-03-25T10:48:33.279Z,9.10
2019-03-25T10:51:03.866Z,9.10
2019-03-25T10:53:34.807Z,9.50
2019-03-25T10:56:06.197Z,9.60
2019-03-25T10:58:37.310Z,9.70
2019-03-25T11:01:09.562Z,9.50
2019-03-25T11:03:40.399Z,9.40
2019-03-25T11:06:11.006Z,9.20
2019-03-25T11:08:41.661Z,9.10
2019-03-25T11:11:12.538Z,9.00
2019-03-25T11:13:43.534Z,8.60
2019-03-25T11:16:14.321Z,8.40
2019-03-25T11:18:45.245Z,8.20
2019-03-25T11:21:16.015Z,8.00
2019-03-25T11:23:46.726Z,8.00
2019-03-25T11:26:17.558Z,8.80
2019-03-25T11:28:48.157Z,9.80
2019-03-25T11:31:20.075Z,10.50
2019-03-25T11:33:50.925Z,11.60
2019-03-25T11:36:21.549Z,12.10
2019-03-25T11:38:52.281Z,12.30
2019-03-25T11:41:22.962Z,12.90
2019-03-25T11:43:53.469Z,13.10
2019-03-25T11:46:24.785Z,12.50
2019-03-25T11:48:55.517Z,11.60
2019-03-25T11:51:26.310Z,11.40
2019-03-25T11:53:58.759Z,12.00
2019-03-25T11:56:29.501Z,12.70
2019-03-25T11:59:00.045Z,12.50
2019-03-25T12:01:30.768Z,11.60
2019-03-25T12:04:01.240Z,11.10
2019-03-25T12:06:31.740Z,10.50
2019-03-25T12:09:02.723Z,10.00
2019-03-25T12:11:33.869Z,10.10
2019-03-25T12:14:05.453Z,10.60
2019-03-25T12:16:36.435Z,11.10
2019-03-25T12:19:07.117Z,11.80
2019-03-25T12:21:37.775Z,12.40
2019-03-25T12:24:09.848Z,12.10
2019-03-25T12:26:41.141Z,11.30
2019-03-25T12:29:11.994Z,11.30
2019-03-25T12:31:43.330Z,10.90
2019-03-25T12:34:13.983Z,10.30
2019-03-25T12:36:44.969Z,10.80
2019-03-25T12:39:15.582Z,11.10
2019-03-25T12:41:47.573Z,10.90
2019-03-25T12:44:31.591Z,10.80
2019-03-25T12:47:02.213Z,10.40
2019-03-25T12:49:32.973Z,9.90
2019-03-25T12:52:03.804Z,10.10
2019-03-25T12:54:34.552Z,8.50
2019-03-25T12:57:05.163Z,7.80
2019-03-25T12:59:41.122Z,7.40
2019-03-25T13:02:08.246Z,7.40
2019-03-25T13:04:38.963Z,7.50
2019-03-25T13:07:09.854Z,7.70
2019-03-25T13:09:40.839Z,7.90
2019-03-25T13:12:11.668Z,8.00
2019-03-25T13:14:42.293Z,8.00
2019-03-25T13:17:13.341Z,7.80
2019-03-25T13:19:44.078Z,8.10
2019-03-25T13:22:14.683Z,8.40
2019-03-25T13:24:46.581Z,8.60
2019-03-25T13:27:17.324Z,8.80
2019-03-25T13:29:52.429Z,8.70
2019-03-25T13:32:20.165Z,8.90
2019-03-25T13:34:50.933Z,8.80
2019-03-25T13:37:22.480Z,8.70
2019-03-25T13:39:55.417Z,8.40
2019-03-25T13:42:26.273Z,8.40
2019-03-25T13:44:57.717Z,8.50
2019-03-25T13:47:30.072Z,8.20
2019-03-25T13:50:00.868Z,8.20
2019-03-25T13:52:31.658Z,8.30
2019-03-25T13:55:04.630Z,8.40
2019-03-25T13:57:43.733Z,8.50
2019-03-25T14:00:22.192Z,8.50
2019-03-25T14:02:52.958Z,8.30
2019-03-25T14:05:23.765Z,8.30
2019-03-25T14:07:54.994Z,8.40
2019-03-25T14:10:25.768Z,8.30
2019-03-25T14:12:57.000Z,8.40
2019-03-25T14:15:28.146Z,8.20
2019-03-25T14:17:59.854Z,8.30
2019-03-25T14:20:30.965Z,8.00
2019-03-25T14:23:02.160Z,7.80
2019-03-25T14:25:32.932Z,7.70
2019-03-25T14:28:08.149Z,7.40
2019-03-25T14:30:38.770Z,7.40
2019-03-25T14:33:09.282Z,7.60
2019-03-25T14:35:40.222Z,7.70
2019-03-25T14:38:10.913Z,7.80
2019-03-25T14:40:43.689Z,7.70
2019-03-25T14:43:14.778Z,7.80
2019-03-25T14:45:45.478Z,8.00
2019-03-25T14:48:19.397Z,8.40
2019-03-25T14:51:00.900Z,8.90
2019-03-25T14:53:31.499Z,9.00
2019-03-25T14:56:03.492Z,9.30
2019-03-25T14:58:34.609Z,9.40
2019-03-25T15:01:05.494Z,9.70
2019-03-25T15:03:47.570Z,9.50
2019-03-25T15:06:18.487Z,9.60
2019-03-25T15:08:49.374Z,9.80
2019-03-25T15:11:20.614Z,9.80
2019-03-25T15:13:51.482Z,9.60
2019-03-25T15:16:22.601Z,9.50
2019-03-25T15:18:53.397Z,9.10
2019-03-25T15:21:24.124Z,8.60
2019-03-25T15:23:55.141Z,8.60
2019-03-25T15:26:25.963Z,8.50
2019-03-25T15:28:56.821Z,8.50
2019-03-25T15:31:43.255Z,8.40
2019-03-25T15:34:13.956Z,8.40
2019-03-25T15:36:45.030Z,8.60
2019-03-25T15:39:15.669Z,8.40
2019-03-25T15:41:51.675Z,8.40
2019-03-25T15:44:34.361Z,8.60
2019-03-25T15:47:05.640Z,8.60
2019-03-25T15:49:36.586Z,8.40
2019-03-25T15:52:07.059Z,8.30
2019-03-25T15:54:37.833Z,8.20
2019-03-25T15:57:08.510Z,8.10
2019-03-25T15:59:39.675Z,8.10
2019-03-25T16:02:10.793Z,8.00
2019-03-25T16:04:41.542Z,8.10
2019-03-25T16:07:12.184Z,8.20
2019-03-25T16:09:43.217Z,8.20
2019-03-25T16:12:13.954Z,8.20
2019-03-25T16:14:44.697Z,8.30
2019-03-25T16:17:16.033Z,8.40
2019-03-25T16:20:07.082Z,8.30
2019-03-25T16:22:37.858Z,8.30
2019-03-25T16:25:09.149Z,8.40
2019-03-25T16:27:39.694Z,8.40
2019-03-25T16:30:11.221Z,8.40
2019-03-25T16:32:42.037Z,8.30
2019-03-25T16:35:13.327Z,8.30
2019-03-25T16:37:44.236Z,8.30
2019-03-25T16:40:15.217Z,8.30
2019-03-25T16:42:45.704Z,8.30
2019-03-25T16:45:16.299Z,8.20
2019-03-25T16:47:47.161Z,8.20
2019-03-25T16:50:17.926Z,8.20
2019-03-25T16:52:49.090Z,8.10
2019-03-25T16:55:29.519Z,8.10
2019-03-25T16:57:59.549Z,7.90
2019-03-25T17:00:30.493Z,8.00
2019-03-25T17:03:02.550Z,8.10
2019-03-25T17:05:36.665Z,8.00
2019-03-25T17:08:09.398Z,7.90
2019-03-25T17:10:40.313Z,7.70
2019-03-25T17:13:11.330Z,7.60
2019-03-25T17:15:41.970Z,7.50
2019-03-25T17:18:13.273Z,7.40
2019-03-25T17:20:43.937Z,7.40
2019-03-25T17:23:14.701Z,7.40
2019-03-25T17:25:52.938Z,7.30
2019-03-25T17:28:18.560Z,7.30
2019-03-25T17:30:49.625Z,7.20
2019-03-25T17:33:20.816Z,7.20
2019-03-25T17:35:51.711Z,7.10
2019-03-25T17:38:22.682Z,7.00
2019-03-25T17:40:54.005Z,7.00
2019-03-25T17:43:24.777Z,7.00
2019-03-25T17:45:55.717Z,7.00
2019-03-25T17:48:27.449Z,6.90
2019-03-25T17:50:58.267Z,6.90
2019-03-25T17:53:29.104Z,6.80
2019-03-25T17:56:00.495Z,6.70
2019-03-25T17:58:31.198Z,6.70
2019-03-25T18:01:31.798Z,6.70
2019-03-25T18:03:54.284Z,6.70
2019-03-25T18:06:25.526Z,6.60
2019-03-25T18:08:56.608Z,6.70
2019-03-25T18:11:27.543Z,6.70
2019-03-25T18:13:58.289Z,6.50
2019-03-25T18:16:29.322Z,6.60
2019-03-25T18:19:03.001Z,6.70
2019-03-25T18:21:33.694Z,6.60
2019-03-25T18:24:04.768Z,6.60
2019-03-25T18:26:36.793Z,6.60
2019-03-25T18:29:07.811Z,6.50
2019-03-25T18:31:43.432Z,6.50
2019-03-25T18:34:11.014Z,6.40
2019-03-25T18:36:42.356Z,6.50
2019-03-25T18:39:13.564Z,6.40
2019-03-25T18:41:44.650Z,6.30
2019-03-25T18:44:22.232Z,6.40
2019-03-25T18:46:52.176Z,6.20
2019-03-25T18:49:23.210Z,6.20
2019-03-25T18:51:54.042Z,6.20
2019-03-25T18:54:25.005Z,6.10
2019-03-25T18:56:55.775Z,6.10
2019-03-25T18:59:26.350Z,6.00
2019-03-25T19:01:57.074Z,6.00
2019-03-25T19:04:28.293Z,6.00
2019-03-25T19:06:59.126Z,6.00
2019-03-25T19:09:30.019Z,6.00
2019-03-25T19:12:00.642Z,6.00
2019-03-25T19:14:31.150Z,5.90
2019-03-25T19:17:02.027Z,5.90
2019-03-25T19:19:33.256Z,5.90
2019-03-25T19:22:05.398Z,5.80
2019-03-25T19:24:36.953Z,5.80
2019-03-25T19:27:07.957Z,5.80
2019-03-25T19:29:38.941Z,5.80
2019-03-25T19:32:09.902Z,5.80
2019-03-25T19:34:40.613Z,5.80
2019-03-25T19:37:11.467Z,5.70
2019-03-25T19:39:42.615Z,5.70
2019-03-25T19:42:13.638Z,5.80
2019-03-25T19:44:44.157Z,5.70
2019-03-25T19:47:15.293Z,5.70
2019-03-25T19:49:46.420Z,5.80
2019-03-25T19:52:17.183Z,5.80
2019-03-25T19:54:48.609Z,5.70
2019-03-25T19:57:19.908Z,5.70
2019-03-25T19:59:50.701Z,5.70
2019-03-25T20:02:21.515Z,5.60
2019-03-25T20:04:52.434Z,5.50
2019-03-25T20:07:23.447Z,5.50
2019-03-25T20:09:54.028Z,5.50
2019-03-25T20:12:24.494Z,5.40
2019-03-25T20:14:55.159Z,5.40
2019-03-25T20:17:26.200Z,5.40
2019-03-25T20:19:57.187Z,5.40
2019-03-25T20:22:28.033Z,5.40
2019-03-25T20:24:58.610Z,5.40
2019-03-25T20:27:29.598Z,5.40
2019-03-25T20:30:00.497Z,5.50
2019-03-25T20:32:32.146Z,5.50
2019-03-25T20:35:02.825Z,5.60
2019-03-25T20:37:33.604Z,5.60
2019-03-25T20:40:04.569Z,5.60
2019-03-25T20:42:35.527Z,5.60
2019-03-25T20:45:06.086Z,5.60
2019-03-25T20:47:36.779Z,5.60
2019-03-25T20:50:08.474Z,5.50
2019-03-25T20:52:39.036Z,5.40
2019-03-25T20:55:10.065Z,5.40
2019-03-25T20:57:41.915Z,5.40
2019-03-25T21:00:13.521Z,5.30
2019-03-25T21:02:45.517Z,5.30
2019-03-25T21:05:17.115Z,5.40
2019-03-25T21:07:47.721Z,5.30
2019-03-25T21:10:18.816Z,5.30
2019-03-25T21:12:49.618Z,5.30
2019-03-25T21:15:20.330Z,5.30
2019-03-25T21:17:50.942Z,5.30
2019-03-25T21:20:22.450Z,5.30
2019-03-25T21:22:52.865Z,5.20
2019-03-25T21:25:23.741Z,5.10
2019-03-25T21:27:54.541Z,5.10
2019-03-25T21:30:28.241Z,5.00
2019-03-25T21:32:58.808Z,5.00
2019-03-25T21:35:30.015Z,5.10
2019-03-25T21:38:00.714Z,5.10
2019-03-25T21:40:31.584Z,5.10
2019-03-25T21:43:02.258Z,5.00
2019-03-25T21:45:33.125Z,5.10
2019-03-25T21:48:03.907Z,5.00
2019-03-25T21:50:35.271Z,5.00
2019-03-25T21:53:06.110Z,5.00
2019-03-25T21:55:36.775Z,5.00
2019-03-25T21:58:07.851Z,5.00
2019-03-25T22:00:38.793Z,5.00
2019-03-25T22:03:12.063Z,5.00
2019-03-25T22:05:42.496Z,4.90
2019-03-25T22:08:13.374Z,4.90
2019-03-25T22:10:44.452Z,4.80
2019-03-25T22:13:15.027Z,4.80
2019-03-25T22:15:45.451Z,4.70
2019-03-25T22:18:16.579Z,4.70
2019-03-25T22:20:47.785Z,4.70
2019-03-25T22:23:18.686Z,4.70
2019-03-25T22:25:49.646Z,4.70
2019-03-25T22:28:20.655Z,4.70
2019-03-25T22:30:51.432Z,4.70
2019-03-25T22:33:26.178Z,4.60
2019-03-25T22:35:54.735Z,4.70
2019-03-25T22:38:25.775Z,4.60
2019-03-25T22:40:56.402Z,4.60
2019-03-25T22:43:27.209Z,4.70
2019-03-25T22:45:58.319Z,4.70
2019-03-25T22:48:28.901Z,4.70
2019-03-25T22:51:00.054Z,4.70
2019-03-25T22:53:30.825Z,4.70
2019-03-25T22:56:01.357Z,4.70
2019-03-25T22:58:32.268Z,4.60
2019-03-25T23:01:04.309Z,4.70
2019-03-25T23:03:39.317Z,4.70
2019-03-25T23:06:07.109Z,4.60
2019-03-25T23:08:37.983Z,4.50
2019-03-25T23:11:08.919Z,4.60
2019-03-25T23:13:39.723Z,4.60
2019-03-25T23:16:10.800Z,4.60
2019-03-25T23:18:41.483Z,4.60
2019-03-25T23:21:12.465Z,4.70
2019-03-25T23:23:43.191Z,4.70
2019-03-25T23:26:13.912Z,4.70
2019-03-25T23:28:44.874Z,4.70
2019-03-25T23:31:16.133Z,4.60
2019-03-25T23:33:52.180Z,4.50
2019-03-25T23:36:19.493Z,4.50
2019-03-25T23:38:50.553Z,4.50
2019-03-25T23:41:21.170Z,4.50
2019-03-25T23:43:52.041Z,4.50
2019-03-25T23:46:22.785Z,4.50
2019-03-25T23:48:53.596Z,4.60
2019-03-25T23:51:24.769Z,4.60
2019-03-25T23:54:11.918Z,4.60
2019-03-25T23:56:43.775Z,4.70
2019-03-25T23:59:14.578Z,4.70
